createdAt,value
2018-06-15T00:01:21.423Z,41.20
2018-06-15T00:03:50.315Z,43.23
2018-06-15T00:06:19.165Z,52.50
2018-06-15T00:08:48.030Z,52.40
2018-06-15T00:11:16.940Z,51.77
2018-06-15T00:13:45.841Z,48.27
2018-06-15T00:16:14.668Z,49.23
2018-06-15T00:18:43.600Z,50.60
2018-06-15T00:21:12.540Z,56.57
2018-06-15T00:23:41.796Z,50.37
2018-06-15T00:26:10.693Z,47.27
2018-06-15T00:28:39.566Z,50.03
2018-06-15T00:31:08.436Z,50.90
2018-06-15T00:33:37.363Z,45.27
2018-06-15T00:36:06.228Z,53.27
2018-06-15T00:38:35.335Z,50.90
2018-06-15T00:41:04.272Z,48.70
2018-06-15T00:43:33.156Z,44.83
2018-06-15T00:46:02.290Z,51.43
2018-06-15T00:48:31.156Z,48.37
2018-06-15T00:50:59.934Z,49.47
2018-06-15T00:53:29.553Z,61.93
2018-06-15T00:55:58.472Z,70.73
2018-06-15T00:58:27.355Z,58.20
2018-06-15T01:00:56.271Z,52.67
2018-06-15T01:03:25.150Z,50.83
2018-06-15T01:05:54.084Z,53.00
2018-06-15T01:08:23.193Z,62.30
2018-06-15T01:10:52.080Z,55.40
2018-06-15T01:13:20.984Z,61.63
2018-06-15T01:15:49.901Z,55.77
2018-06-15T01:18:18.796Z,57.60
2018-06-15T01:20:47.707Z,63.70
2018-06-15T01:23:16.614Z,57.50
2018-06-15T01:25:45.508Z,59.77
2018-06-15T01:28:14.377Z,55.27
2018-06-15T01:30:43.268Z,58.03
2018-06-15T01:33:12.158Z,59.00
2018-06-15T01:35:41.060Z,59.00
2018-06-15T01:38:09.931Z,56.30
2018-06-15T01:40:38.897Z,59.50
2018-06-15T01:43:07.787Z,59.13
2018-06-15T01:45:36.720Z,55.47
2018-06-15T01:48:05.715Z,55.80
2018-06-15T01:50:34.636Z,65.87
2018-06-15T01:53:03.544Z,56.47
2018-06-15T01:55:32.436Z,63.93
2018-06-15T01:58:01.336Z,55.07
2018-06-15T02:00:30.238Z,52.27
2018-06-15T02:02:59.148Z,68.83
2018-06-15T02:05:28.029Z,57.53
2018-06-15T02:07:56.922Z,56.63
2018-06-15T02:10:25.787Z,65.00
2018-06-15T02:12:54.965Z,54.93
2018-06-15T02:15:23.875Z,56.37
2018-06-15T02:17:52.857Z,59.73
2018-06-15T02:20:21.795Z,56.37
2018-06-15T02:22:50.722Z,54.30
2018-06-15T02:25:19.725Z,60.70
2018-06-15T02:27:48.620Z,71.27
2018-06-15T02:30:17.696Z,67.50
2018-06-15T02:32:46.574Z,63.20
2018-06-15T02:35:15.468Z,62.00
2018-06-15T02:37:44.402Z,64.23
2018-06-15T02:40:13.321Z,64.37
2018-06-15T02:42:45.271Z,70.00
2018-06-15T02:45:14.207Z,68.93
2018-06-15T02:47:43.120Z,56.17
2018-06-15T02:50:12.055Z,63.87
2018-06-15T02:52:40.960Z,65.87
2018-06-15T02:55:09.872Z,63.70
2018-06-15T02:57:38.804Z,74.07
2018-06-15T03:00:07.740Z,75.37
2018-06-15T03:02:36.677Z,57.43
2018-06-15T03:05:05.689Z,60.50
2018-06-15T03:07:34.625Z,56.33
2018-06-15T03:10:03.581Z,61.70
2018-06-15T03:12:32.556Z,61.40
2018-06-15T03:15:01.453Z,56.87
2018-06-15T03:17:30.406Z,56.63
2018-06-15T03:19:59.325Z,58.70
2018-06-15T03:22:28.278Z,69.33
2018-06-15T03:24:57.191Z,61.53
2018-06-15T03:27:26.108Z,57.50
2018-06-15T03:29:55.023Z,60.33
2018-06-15T03:32:23.944Z,60.47
2018-06-15T03:34:52.848Z,64.13
2018-06-15T03:37:21.777Z,58.93
2018-06-15T03:39:50.729Z,62.53
2018-06-15T03:42:19.642Z,72.97
2018-06-15T03:44:48.575Z,69.70
2018-06-15T03:47:17.500Z,73.53
2018-06-15T03:49:46.424Z,71.23
2018-06-15T03:52:15.360Z,74.17
2018-06-15T03:54:44.301Z,66.13
2018-06-15T03:57:13.227Z,55.07
2018-06-15T03:59:42.224Z,65.70
2018-06-15T04:02:11.136Z,68.00
2018-06-15T04:04:40.053Z,78.57
2018-06-15T04:07:08.979Z,72.30
2018-06-15T04:09:38.005Z,75.80
2018-06-15T04:12:06.945Z,73.07
2018-06-15T04:14:35.881Z,88.70
2018-06-15T04:17:04.848Z,82.87
2018-06-15T04:19:33.792Z,73.80
2018-06-15T04:22:02.876Z,71.70
2018-06-15T04:24:31.833Z,69.40
2018-06-15T04:27:00.767Z,72.93
2018-06-15T04:29:29.693Z,77.03
2018-06-15T04:31:58.601Z,89.67
2018-06-15T04:34:27.737Z,72.60
2018-06-15T04:36:56.629Z,80.20
2018-06-15T04:39:25.536Z,75.33
2018-06-15T04:41:54.492Z,71.20
2018-06-15T04:44:23.701Z,76.90
2018-06-15T04:46:52.613Z,67.53
2018-06-15T04:49:21.536Z,66.07
2018-06-15T04:51:50.444Z,72.33
2018-06-15T04:54:19.385Z,71.70
2018-06-15T04:56:48.309Z,69.77
2018-06-15T04:59:17.466Z,73.40
2018-06-15T05:01:46.405Z,80.67
2018-06-15T05:04:15.398Z,73.40
2018-06-15T05:06:44.469Z,69.30
2018-06-15T05:09:13.714Z,67.27
2018-06-15T05:11:42.640Z,67.57
2018-06-15T05:14:11.681Z,75.73
2018-06-15T05:16:40.584Z,79.87
2018-06-15T05:19:09.524Z,75.73
2018-06-15T05:21:38.455Z,79.57
2018-06-15T05:24:07.396Z,78.30
2018-06-15T05:26:36.305Z,73.77
2018-06-15T05:29:05.294Z,81.83
2018-06-15T05:31:34.224Z,77.43
2018-06-15T05:34:03.188Z,76.50
2018-06-15T05:36:32.131Z,76.97
2018-06-15T05:39:01.013Z,82.27
2018-06-15T05:41:29.732Z,78.80
2018-06-15T05:43:58.516Z,97.73
2018-06-15T05:46:27.483Z,72.60
2018-06-15T05:48:56.380Z,68.57
2018-06-15T05:51:25.329Z,71.00
2018-06-15T05:53:54.260Z,68.47
2018-06-15T05:56:23.051Z,66.37
2018-06-15T05:58:52.088Z,72.13
2018-06-15T06:01:21.055Z,77.10
2018-06-15T06:03:50.071Z,70.53
2018-06-15T06:06:18.966Z,60.63
2018-06-15T06:08:47.944Z,66.50
2018-06-15T06:11:16.884Z,64.10
2018-06-15T06:13:45.828Z,67.70
2018-06-15T06:16:14.738Z,53.97
2018-06-15T06:18:43.689Z,55.73
2018-06-15T06:21:12.653Z,52.93
2018-06-15T06:23:41.644Z,59.23
2018-06-15T06:26:10.844Z,53.93
2018-06-15T06:28:39.779Z,57.67
2018-06-15T06:31:08.833Z,60.20
2018-06-15T06:33:37.813Z,55.17
2018-06-15T06:36:06.783Z,58.90
2018-06-15T06:38:35.670Z,63.03
2018-06-15T06:41:04.632Z,53.67
2018-06-15T06:43:33.608Z,49.70
2018-06-15T06:46:02.544Z,56.83
2018-06-15T06:48:31.470Z,48.77
2018-06-15T06:51:00.404Z,46.23
2018-06-15T06:53:29.437Z,45.70
2018-06-15T06:55:58.356Z,50.30
2018-06-15T06:58:27.299Z,45.83
2018-06-15T07:00:56.245Z,49.90
2018-06-15T07:03:27.166Z,42.80
2018-06-15T07:05:56.096Z,46.23
2018-06-15T07:08:24.803Z,44.33
2018-06-15T07:10:53.419Z,44.00
2018-06-15T07:13:22.237Z,46.07
2018-06-15T07:15:51.163Z,47.57
2018-06-15T07:18:20.087Z,47.47
2018-06-15T07:20:49.054Z,42.27
2018-06-15T07:23:17.992Z,45.67
2018-06-15T07:25:46.938Z,50.57
2018-06-15T07:28:15.871Z,42.83
2018-06-15T07:30:44.806Z,39.10
2018-06-15T07:33:13.762Z,45.60
2018-06-15T07:35:42.910Z,43.23
2018-06-15T07:38:11.862Z,50.57
2018-06-15T07:40:40.789Z,45.03
2018-06-15T07:43:09.747Z,44.13
2018-06-15T07:45:38.727Z,40.87
2018-06-15T07:48:07.693Z,40.77
2018-06-15T07:50:36.754Z,40.83
2018-06-15T07:53:05.646Z,41.20
2018-06-15T07:55:34.570Z,38.47
2018-06-15T07:58:03.690Z,43.27
2018-06-15T08:00:32.634Z,38.70
2018-06-15T08:03:01.549Z,38.70
2018-06-15T08:05:30.490Z,35.20
2018-06-15T08:07:59.400Z,33.20
2018-06-15T08:10:28.344Z,32.17
2018-06-15T08:12:57.274Z,25.70
2018-06-15T08:15:26.193Z,23.23
2018-06-15T08:17:55.141Z,26.97
2018-06-15T08:20:24.119Z,26.50
2018-06-15T08:22:53.296Z,27.00
2018-06-15T08:25:22.225Z,23.03
2018-06-15T08:27:51.153Z,23.47
2018-06-15T08:30:20.177Z,28.23
2018-06-15T08:32:49.131Z,26.03
2018-06-15T08:35:18.084Z,29.30
2018-06-15T08:37:47.032Z,28.23
2018-06-15T08:40:16.090Z,26.73
2018-06-15T08:42:45.045Z,27.70
2018-06-15T08:45:14.018Z,27.43
2018-06-15T08:47:42.959Z,23.60
2018-06-15T08:50:11.856Z,23.57
2018-06-15T08:52:40.791Z,20.47
2018-06-15T08:55:09.692Z,23.43
2018-06-15T08:57:39.627Z,18.70
2018-06-15T09:00:08.661Z,21.73
2018-06-15T09:02:37.548Z,22.03
2018-06-15T09:05:06.451Z,20.53
2018-06-15T09:07:35.405Z,22.40
2018-06-15T09:10:04.329Z,26.10
2018-06-15T09:12:33.270Z,20.57
2018-06-15T09:15:02.232Z,22.63
2018-06-15T09:17:31.137Z,18.70
2018-06-15T09:20:01.061Z,20.90
2018-06-15T09:22:30.047Z,26.90
2018-06-15T09:24:58.969Z,18.87
2018-06-15T09:27:27.894Z,21.07
2018-06-15T09:29:57.072Z,19.17
2018-06-15T09:32:26.293Z,17.50
2018-06-15T09:34:55.204Z,12.90
2018-06-15T09:37:24.149Z,21.43
2018-06-15T09:39:53.359Z,19.70
2018-06-15T09:42:22.539Z,25.73
2018-06-15T09:44:51.766Z,18.13
2018-06-15T09:47:20.939Z,11.30
2018-06-15T09:49:50.168Z,12.67
2018-06-15T09:52:19.331Z,15.10
2018-06-15T09:54:48.568Z,16.30
2018-06-15T09:57:17.675Z,16.50
2018-06-15T09:59:46.640Z,15.37
2018-06-15T10:02:15.763Z,18.73
2018-06-15T10:04:44.817Z,16.57
2018-06-15T10:07:13.990Z,18.13
2018-06-15T10:09:43.027Z,13.63
2018-06-15T10:12:15.351Z,15.53
2018-06-15T10:14:44.260Z,15.90
2018-06-15T10:17:13.205Z,15.73
2018-06-15T10:19:42.221Z,23.30
2018-06-15T10:22:11.229Z,15.37
2018-06-15T10:24:40.179Z,14.30
2018-06-15T10:27:09.703Z,14.30
2018-06-15T10:29:38.914Z,14.10
2018-06-15T10:32:07.884Z,9.90
2018-06-15T10:37:12.044Z,12.93
2018-06-15T11:03:28.914Z,10.70
2018-06-15T11:05:57.859Z,10.57
2018-06-15T11:08:26.823Z,6.73
2018-06-15T11:10:55.772Z,7.07
2018-06-15T11:13:24.689Z,5.30
2018-06-15T11:15:53.580Z,7.53
2018-06-15T11:18:22.482Z,6.40
2018-06-15T11:20:51.630Z,7.40
2018-06-15T11:23:20.854Z,6.20
2018-06-15T11:25:49.763Z,8.33
2018-06-15T11:28:19.306Z,8.93
2018-06-15T11:30:48.404Z,12.67
2018-06-15T11:33:17.320Z,9.33
2018-06-15T11:35:46.285Z,12.00
2018-06-15T11:38:15.275Z,8.67
2018-06-15T11:40:44.217Z,8.90
2018-06-15T11:43:13.174Z,6.90
2018-06-15T11:45:42.079Z,7.70
2018-06-15T11:48:10.988Z,7.80
2018-06-15T11:50:39.885Z,9.97
2018-06-15T11:53:08.803Z,7.40
2018-06-15T11:55:37.725Z,9.13
2018-06-15T11:58:06.690Z,7.73
2018-06-15T12:00:35.624Z,5.80
2018-06-15T12:03:04.592Z,6.13
2018-06-15T12:05:33.758Z,6.30
2018-06-15T12:08:02.700Z,6.37
2018-06-15T12:10:31.628Z,7.10
2018-06-15T12:13:00.545Z,7.57
2018-06-15T12:15:29.469Z,10.27
2018-06-15T12:17:58.373Z,8.13
2018-06-15T12:20:27.272Z,5.53
2018-06-15T12:22:56.329Z,4.80
2018-06-15T12:25:25.240Z,6.90
2018-06-15T12:27:54.175Z,5.13
2018-06-15T12:30:23.141Z,5.00
2018-06-15T12:32:52.066Z,6.30
2018-06-15T12:35:21.104Z,6.07
2018-06-15T12:37:50.033Z,6.07
2018-06-15T12:40:18.924Z,5.30
2018-06-15T12:42:47.876Z,6.37
2018-06-15T12:45:16.803Z,5.53
2018-06-15T12:47:45.810Z,7.30
2018-06-15T12:50:14.724Z,5.80
2018-06-15T12:52:43.634Z,8.60
2018-06-15T12:55:12.569Z,5.97
2018-06-15T12:57:41.533Z,4.97
2018-06-15T13:00:10.450Z,11.63
2018-06-15T13:02:39.341Z,6.50
2018-06-15T13:05:08.294Z,11.20
2018-06-15T13:07:37.210Z,7.17
2018-06-15T13:10:06.138Z,5.87
2018-06-15T13:12:35.054Z,5.73
2018-06-15T13:15:04.196Z,6.20
2018-06-15T13:17:33.084Z,6.50
2018-06-15T13:20:02.034Z,10.73
2018-06-15T13:22:30.969Z,7.40
2018-06-15T13:24:59.876Z,11.07
2018-06-15T13:27:28.805Z,6.17
2018-06-15T13:29:57.728Z,5.30
2018-06-15T13:32:26.674Z,10.30
2018-06-15T13:34:55.745Z,7.20
2018-06-15T13:37:24.658Z,5.67
2018-06-15T13:39:53.568Z,5.87
2018-06-15T13:42:22.517Z,7.60
2018-06-15T13:44:51.411Z,6.00
2018-06-15T13:47:20.346Z,7.03
2018-06-15T13:49:49.423Z,5.40
2018-06-15T13:52:18.326Z,5.77
2018-06-15T13:54:47.265Z,6.20
2018-06-15T13:57:16.216Z,7.77
2018-06-15T13:59:45.214Z,7.43
2018-06-15T14:02:14.122Z,9.00
2018-06-15T14:04:43.124Z,5.50
2018-06-15T14:07:12.037Z,6.33
2018-06-15T14:09:41.289Z,9.07
2018-06-15T14:12:10.233Z,6.87
2018-06-15T14:14:39.151Z,4.73
2018-06-15T14:17:08.112Z,9.40
2018-06-15T14:19:36.789Z,6.33
2018-06-15T14:22:05.621Z,5.33
2018-06-15T14:24:34.566Z,5.47
2018-06-15T14:27:03.575Z,4.33
2018-06-15T14:29:32.546Z,5.20
2018-06-15T14:32:01.474Z,4.20
2018-06-15T14:34:30.582Z,5.57
2018-06-15T14:36:59.503Z,4.97
2018-06-15T14:39:29.333Z,6.10
2018-06-15T14:41:58.322Z,4.53
2018-06-15T14:44:27.496Z,3.70
2018-06-15T14:46:56.430Z,3.67
2018-06-15T14:49:25.381Z,4.10
2018-06-15T14:51:54.320Z,6.57
2018-06-15T14:54:23.239Z,4.67
2018-06-15T14:56:52.177Z,5.30
2018-06-15T14:59:21.087Z,5.90
2018-06-15T15:04:25.162Z,4.10
2018-06-15T15:06:54.076Z,4.20
2018-06-15T15:09:23.077Z,5.33
2018-06-15T15:11:51.976Z,4.70
2018-06-15T15:14:20.878Z,3.40
2018-06-15T15:16:50.760Z,5.30
2018-06-15T15:19:19.692Z,3.40
2018-06-15T15:21:48.777Z,8.13
2018-06-15T15:24:17.695Z,8.90
2018-06-15T15:26:46.600Z,4.70
2018-06-15T15:29:15.398Z,6.13
2018-06-15T15:31:45.441Z,5.67
2018-06-15T15:34:14.532Z,3.20
2018-06-15T15:36:43.568Z,4.50
2018-06-15T15:39:12.537Z,5.23
2018-06-15T15:41:41.453Z,5.63
2018-06-15T15:44:10.366Z,7.03
2018-06-15T15:46:39.279Z,7.17
2018-06-15T15:49:08.246Z,5.03
2018-06-15T15:51:37.174Z,7.33
2018-06-15T15:54:06.098Z,6.90
2018-06-15T15:56:35.065Z,7.97
2018-06-15T15:59:04.053Z,6.70
2018-06-15T16:01:33.291Z,7.00
2018-06-15T16:04:02.201Z,7.67
2018-06-15T16:06:31.136Z,4.50
2018-06-15T16:09:00.047Z,6.60
2018-06-15T16:11:29.173Z,5.23
2018-06-15T16:13:58.284Z,8.43
2018-06-15T16:16:27.197Z,6.87
2018-06-15T16:18:56.129Z,12.03
2018-06-15T16:21:25.041Z,5.60
2018-06-15T16:23:53.938Z,4.20
2018-06-15T16:26:22.874Z,8.60
2018-06-15T16:28:51.820Z,7.87
2018-06-15T16:31:20.730Z,11.17
2018-06-15T16:33:49.898Z,7.50
2018-06-15T16:36:18.862Z,7.70
2018-06-15T16:38:48.000Z,5.70
2018-06-15T16:41:16.932Z,10.80
2018-06-15T16:43:45.849Z,8.10
2018-06-15T16:46:14.756Z,4.33
2018-06-15T16:48:43.865Z,4.27
2018-06-15T16:51:12.575Z,7.00
2018-06-15T16:53:41.397Z,7.60
2018-06-15T16:56:10.331Z,9.40
2018-06-15T16:58:39.240Z,5.73
2018-06-15T17:01:08.373Z,10.17
2018-06-15T17:03:37.280Z,8.90
2018-06-15T17:06:06.212Z,11.97
2018-06-15T17:08:35.189Z,4.23
2018-06-15T17:11:04.099Z,10.33
2018-06-15T17:13:32.977Z,6.27
2018-06-15T17:16:02.238Z,7.17
2018-06-15T17:18:31.488Z,9.27
2018-06-15T17:21:00.307Z,9.67
2018-06-15T17:23:29.266Z,10.73
2018-06-15T17:25:58.214Z,8.83
2018-06-15T17:28:27.133Z,5.10
2018-06-15T17:30:56.046Z,14.40
2018-06-15T17:33:24.986Z,6.53
2018-06-15T17:35:54.178Z,6.10
2018-06-15T17:38:23.198Z,9.07
2018-06-15T17:40:52.159Z,7.13
2018-06-15T17:43:21.176Z,8.50
2018-06-15T17:45:51.168Z,10.67
2018-06-15T17:48:20.101Z,8.63
2018-06-15T17:50:49.005Z,8.20
2018-06-15T17:53:17.990Z,5.77
2018-06-15T17:55:46.977Z,4.87
2018-06-15T17:58:15.893Z,9.70
2018-06-15T18:00:44.857Z,10.90
2018-06-15T18:03:13.760Z,6.67
2018-06-15T18:05:42.672Z,4.90
2018-06-15T18:10:46.928Z,6.30
2018-06-15T18:13:15.859Z,7.87
2018-06-15T18:15:44.826Z,6.87
2018-06-15T18:18:13.926Z,10.67
2018-06-15T18:20:43.069Z,6.27
2018-06-15T18:23:12.275Z,10.47
2018-06-15T18:25:41.223Z,7.90
2018-06-15T18:28:10.133Z,7.47
2018-06-15T18:30:39.041Z,6.43
2018-06-15T18:33:07.979Z,6.20
2018-06-15T18:35:36.890Z,10.40
2018-06-15T18:38:06.004Z,7.37
2018-06-15T18:40:34.921Z,9.80
2018-06-15T18:43:03.848Z,7.30
2018-06-15T18:45:32.953Z,7.23
2018-06-15T18:48:01.899Z,6.80
2018-06-15T18:50:30.774Z,8.53
2018-06-15T18:52:59.683Z,8.43
2018-06-15T18:55:28.580Z,8.37
2018-06-15T18:57:57.518Z,8.57
2018-06-15T19:00:26.543Z,9.00
2018-06-15T19:02:55.476Z,7.30
2018-06-15T19:05:24.492Z,8.80
2018-06-15T19:07:53.399Z,18.00
2018-06-15T19:10:22.297Z,14.00
2018-06-15T19:12:52.262Z,8.73
2018-06-15T19:15:21.213Z,12.63
2018-06-15T19:17:50.222Z,15.07
2018-06-15T19:20:19.124Z,9.03
2018-06-15T19:22:48.795Z,13.10
2018-06-15T19:25:17.724Z,11.10
2018-06-15T19:27:46.712Z,9.27
2018-06-15T19:30:16.173Z,9.03
2018-06-15T19:32:45.083Z,10.83
2018-06-15T19:35:14.010Z,5.87
2018-06-15T19:37:43.293Z,14.93
2018-06-15T19:40:12.249Z,16.30
2018-06-15T19:42:41.279Z,10.27
2018-06-15T19:45:10.253Z,12.90
2018-06-15T19:47:39.152Z,10.30
2018-06-15T19:50:08.129Z,11.27
2018-06-15T19:52:37.049Z,11.50
2018-06-15T19:55:06.040Z,11.80
2018-06-15T19:57:34.953Z,9.43
2018-06-15T20:00:03.933Z,13.83
2018-06-15T20:02:32.867Z,13.77
2018-06-15T20:05:02.491Z,10.80
2018-06-15T20:07:31.412Z,12.57
2018-06-15T20:10:00.321Z,11.37
2018-06-15T20:12:29.260Z,11.63
2018-06-15T20:14:58.177Z,13.03
2018-06-15T20:17:27.072Z,12.20
2018-06-15T20:19:56.012Z,18.63
2018-06-15T20:22:24.928Z,9.53
2018-06-15T20:24:53.926Z,12.40
2018-06-15T20:27:22.836Z,10.83
2018-06-15T20:29:51.757Z,12.90
2018-06-15T20:32:20.709Z,16.77
2018-06-15T20:34:49.708Z,13.03
2018-06-15T20:37:18.681Z,11.90
2018-06-15T20:39:47.626Z,9.93
2018-06-15T20:42:16.552Z,16.37
2018-06-15T20:44:45.612Z,10.43
2018-06-15T20:47:14.526Z,15.77
2018-06-15T20:49:43.452Z,9.67
2018-06-15T20:52:12.384Z,8.10
2018-06-15T20:54:41.339Z,9.63
2018-06-15T20:57:10.256Z,18.20
2018-06-15T20:59:39.187Z,13.30
2018-06-15T21:02:08.170Z,16.27
2018-06-15T21:04:37.097Z,13.80
2018-06-15T21:07:06.055Z,19.20
2018-06-15T21:09:34.955Z,15.07
2018-06-15T21:12:03.873Z,19.30
2018-06-15T21:14:32.941Z,13.40
2018-06-15T21:17:01.843Z,11.03
2018-06-15T21:19:30.747Z,13.93
2018-06-15T21:21:59.849Z,15.33
2018-06-15T21:24:28.801Z,12.43
2018-06-15T21:26:57.683Z,15.57
2018-06-15T21:29:26.617Z,15.40
2018-06-15T21:31:55.793Z,11.63
2018-06-15T21:34:24.988Z,16.33
2018-06-15T21:36:54.207Z,16.33
2018-06-15T21:39:23.340Z,15.40
2018-06-15T21:41:52.275Z,11.90
2018-06-15T21:44:22.539Z,20.00
2018-06-15T21:46:51.601Z,17.20
2018-06-15T21:49:20.560Z,11.43
2018-06-15T21:51:49.675Z,17.10
2018-06-15T21:54:18.952Z,14.80
2018-06-15T21:56:47.881Z,10.97
2018-06-15T21:59:17.029Z,13.17
2018-06-15T22:01:45.989Z,13.40
2018-06-15T22:04:14.933Z,20.70
2018-06-15T22:06:43.884Z,15.70
2018-06-15T22:09:13.134Z,15.43
2018-06-15T22:11:42.158Z,18.73
2018-06-15T22:14:11.226Z,17.83
2018-06-15T22:16:45.534Z,15.67
2018-06-15T22:19:14.486Z,18.00
2018-06-15T22:21:43.897Z,19.90
2018-06-15T22:24:12.842Z,12.67
2018-06-15T22:26:41.541Z,23.80
2018-06-15T22:29:10.482Z,15.17
2018-06-15T22:31:39.693Z,18.63
2018-06-15T22:34:08.630Z,20.87
2018-06-15T22:36:37.585Z,20.30
2018-06-15T22:39:09.825Z,19.97
2018-06-15T22:41:38.737Z,27.67
2018-06-15T22:44:07.984Z,16.07
2018-06-15T22:46:36.912Z,18.70
2018-06-15T22:49:05.846Z,19.57
2018-06-15T22:51:34.876Z,17.93
2018-06-15T22:54:04.073Z,20.13
2018-06-15T22:56:33.281Z,18.60
2018-06-15T22:59:02.372Z,22.20
2018-06-15T23:01:31.750Z,18.63
2018-06-15T23:04:01.257Z,23.03
2018-06-15T23:06:30.284Z,16.77
2018-06-15T23:08:59.217Z,18.47
2018-06-15T23:11:28.214Z,19.40
2018-06-15T23:13:57.166Z,17.50
2018-06-15T23:16:26.077Z,23.23
2018-06-15T23:18:54.973Z,22.17
2018-06-15T23:21:23.883Z,17.93
2018-06-15T23:23:52.797Z,21.53
2018-06-15T23:26:21.725Z,17.00
2018-06-15T23:28:50.640Z,21.10
2018-06-15T23:31:19.600Z,18.77
2018-06-15T23:33:48.523Z,21.23
2018-06-15T23:36:17.513Z,21.97
2018-06-15T23:38:46.446Z,19.07
2018-06-15T23:41:15.372Z,21.97
2018-06-15T23:43:44.415Z,19.50
2018-06-15T23:46:13.641Z,24.80
2018-06-15T23:48:42.588Z,21.27
2018-06-15T23:51:11.552Z,31.83
2018-06-15T23:53:40.504Z,22.60
2018-06-15T23:56:09.168Z,21.97
2018-06-15T23:58:38.061Z,25.20
